Time;durP1;ratioP1;P1;durP2;ratioP2;P2;SDS_P1;SDS_P2;PMS_P1;PMS_P2;Temp;Humidity;BMP_temperature;BMP_pressure;BME280_temperature;BME280_humidity;BME280_pressure;Samples;Min_cycle;Max_cycle;Signal;HPM_P1;HPM_P2
2021/09/21 00:01:06;;;;;;;10.45;6.85;;;;;;;8.89;67.60;101517.59;5103202;28;20043;-67
2021/09/21 00:03:33;;;;;;;10.57;6.57;;;;;;;8.89;67.52;101513.31;5103389;28;20035;-68
2021/09/21 00:05:59;;;;;;;16.27;7.57;;;;;;;8.86;67.59;101510.69;5103261;28;20031;-68
2021/09/21 00:08:27;;;;;;;16.67;6.68;;;;;;;8.90;67.48;101516.75;5103211;28;20032;-68
2021/09/21 00:10:53;;;;;;;16.70;6.63;;;;;;;8.91;67.62;101519.38;5103091;28;20028;-68
2021/09/21 00:13:18;;;;;;;11.02;6.13;;;;;;;8.92;67.43;101513.38;5102974;28;20051;-68
2021/09/21 00:15:44;;;;;;;12.23;5.88;;;;;;;8.91;67.30;101500.38;5103375;28;20024;-68
2021/09/21 00:18:09;;;;;;;11.65;6.63;;;;;;;8.90;67.39;101496.91;5103416;28;20021;-68
2021/09/21 00:20:35;;;;;;;8.57;6.13;;;;;;;8.85;67.50;101508.91;5103113;28;20020;-68
2021/09/21 00:23:00;;;;;;;11.75;7.20;;;;;;;8.83;67.40;101509.75;5102965;28;20040;-68
2021/09/21 00:25:25;;;;;;;8.98;5.93;;;;;;;8.79;67.35;101514.88;5103004;28;20028;-68
2021/09/21 00:27:51;;;;;;;14.68;6.70;;;;;;;8.80;67.39;101523.53;5102996;28;20077;-68
2021/09/21 00:30:17;;;;;;;10.50;6.28;;;;;;;8.78;67.53;101513.13;5102854;28;20024;-68
2021/09/21 00:32:45;;;;;;;11.35;6.07;;;;;;;8.72;67.71;101501.78;5103105;28;20020;-68
2021/09/21 00:35:11;;;;;;;10.38;6.18;;;;;;;8.74;67.70;101513.06;5103389;28;20024;-68
2021/09/21 00:37:38;;;;;;;9.02;5.97;;;;;;;8.70;67.63;101514.72;5103244;28;20037;-68
2021/09/21 00:40:04;;;;;;;10.07;6.15;;;;;;;8.69;67.87;101505.19;5084743;28;20020;-68
2021/09/21 00:42:31;;;;;;;10.38;5.82;;;;;;;8.66;68.03;101515.50;5103042;28;20020;-68
2021/09/21 00:45:03;;;;;;;10.95;6.70;;;;;;;8.62;68.01;101517.19;5102924;28;20024;-68
2021/09/21 00:47:28;;;;;;;11.65;6.00;;;;;;;8.65;68.38;101514.63;5103840;28;20054;-68
2021/09/21 00:49:55;;;;;;;9.00;5.97;;;;;;;8.64;68.53;101519.78;5107001;28;20383;-69
2021/09/21 00:52:20;;;;;;;10.65;6.43;;;;;;;8.63;68.68;101521.50;5106814;28;20077;-68
2021/09/21 00:54:46;;;;;;;10.30;5.90;;;;;;;8.66;68.66;101526.72;5088899;28;20027;-68
2021/09/21 00:57:13;;;;;;;11.90;6.32;;;;;;;8.70;68.65;101524.19;5088809;28;20332;-68
2021/09/21 00:59:39;;;;;;;9.10;6.15;;;;;;;8.72;68.88;101519.91;5106687;28;20020;-68
2021/09/21 01:02:04;;;;;;;9.35;5.93;;;;;;;8.75;68.85;101527.75;5106971;28;20024;-68
2021/09/21 01:04:30;;;;;;;9.02;5.70;;;;;;;8.72;68.75;101525.94;5106633;28;20020;-68
2021/09/21 01:06:56;;;;;;;8.70;5.78;;;;;;;8.77;69.09;101533.81;5106563;28;20028;-68
2021/09/21 01:09:23;;;;;;;10.20;6.05;;;;;;;8.77;69.33;101533.81;5106681;28;20031;-69
2021/09/21 01:11:53;;;;;;;8.75;5.68;;;;;;;8.76;69.27;101530.34;5106584;28;20422;-68
2021/09/21 01:14:18;;;;;;;15.32;6.30;;;;;;;8.78;69.42;101543.31;5106497;28;20541;-68
2021/09/21 01:16:45;;;;;;;12.00;6.25;;;;;;;8.79;69.28;101538.19;5107374;28;20024;-67
2021/09/21 01:19:12;;;;;;;11.25;6.53;;;;;;;8.80;69.38;101528.69;5106896;28;20494;-67
2021/09/21 01:21:39;;;;;;;10.63;5.80;;;;;;;8.80;69.40;101529.56;5106475;28;20024;-68
2021/09/21 01:24:05;;;;;;;11.80;6.38;;;;;;;8.81;69.15;101527.84;5106427;28;20384;-68
2021/09/21 01:26:30;;;;;;;8.90;5.82;;;;;;;8.83;69.00;101526.16;5106294;28;20399;-68
2021/09/21 01:28:56;;;;;;;9.80;5.95;;;;;;;8.79;69.28;101517.47;5105941;28;20031;-68
2021/09/21 01:31:21;;;;;;;8.52;5.93;;;;;;;8.78;69.09;101518.31;5106213;28;20032;-68
2021/09/21 01:33:49;;;;;;;10.02;5.78;;;;;;;8.82;69.16;101524.41;5106065;28;20028;-68
2021/09/21 01:36:16;;;;;;;12.38;6.13;;;;;;;8.82;69.19;101524.41;5087751;28;20078;-68
2021/09/21 01:38:41;;;;;;;10.50;5.47;;;;;;;8.86;69.03;101522.75;5106179;28;20035;-68
2021/09/21 01:41:07;;;;;;;9.73;6.03;;;;;;;8.80;69.10;101511.41;5106001;28;20051;-68
2021/09/21 01:43:32;;;;;;;9.48;5.82;;;;;;;8.83;69.26;101500.25;5105696;28;20012;-68
2021/09/21 01:45:57;;;;;;;9.82;4.93;;;;;;;8.87;68.95;101489.09;5105982;28;20515;-68
2021/09/21 01:48:23;;;;;;;7.47;4.82;;;;;;;8.81;69.22;101489.00;5105889;28;20019;-68
2021/09/21 01:50:59;;;;;;;9.30;5.75;;;;;;;8.80;69.32;101492.44;5105705;28;20028;-68
2021/09/21 01:58:52;;;;;;;9.13;5.28;;;;;;;8.59;70.45;101470.53;5104709;28;20049;-69
2021/09/21 02:01:21;;;;;;;11.15;5.78;;;;;;;8.63;70.57;101469.72;5105122;28;20047;-69
2021/09/21 02:03:49;;;;;;;9.30;5.30;;;;;;;8.59;70.81;101460.19;5105619;28;20012;-69
2021/09/21 02:06:15;;;;;;;11.15;6.30;;;;;;;8.58;71.32;101467.91;5105734;28;20035;-70
2021/09/21 02:08:41;;;;;;;9.65;6.47;;;;;;;8.50;71.48;101450.50;5105550;28;20070;-69
2021/09/21 02:11:07;;;;;;;9.88;5.57;;;;;;;8.48;71.77;101447.00;5105386;28;20040;-69
2021/09/21 02:13:32;;;;;;;9.77;5.85;;;;;;;8.42;72.12;101442.59;5105243;28;20028;-69
2021/09/21 02:15:57;;;;;;;11.63;5.90;;;;;;;8.36;72.36;101441.59;5105388;28;20084;-69
2021/09/21 02:18:23;;;;;;;9.38;5.78;;;;;;;8.37;72.38;101439.06;5105335;28;20028;-69
2021/09/21 02:20:48;;;;;;;12.82;6.15;;;;;;;8.36;72.29;101436.44;5105216;28;20548;-70
2021/09/21 02:23:14;;;;;;;10.73;5.78;;;;;;;8.25;72.62;101431.06;5105012;28;20051;-69
2021/09/21 02:25:39;;;;;;;8.60;5.03;;;;;;;8.24;72.79;101431.94;5105210;28;20020;-69
2021/09/21 02:28:05;;;;;;;12.57;6.10;;;;;;;8.22;73.01;101441.38;5105007;28;20024;-68
2021/09/21 02:30:30;;;;;;;12.38;6.00;;;;;;;8.21;72.89;101434.47;5104906;28;20020;-69
2021/09/21 02:32:55;;;;;;;9.85;5.65;;;;;;;8.19;73.08;101444.78;5086719;28;20404;-69
2021/09/21 02:35:21;;;;;;;10.55;5.40;;;;;;;8.18;73.17;101438.72;5104741;28;20035;-69
2021/09/21 02:37:47;;;;;;;10.38;5.72;;;;;;;8.17;73.32;101444.75;5104695;28;20024;-69
2021/09/21 02:40:13;;;;;;;8.68;5.22;;;;;;;8.19;73.15;101440.47;5104216;28;20028;-69
2021/09/21 02:42:39;;;;;;;8.20;5.72;;;;;;;8.15;73.47;101441.25;5104738;28;20673;-68
2021/09/21 02:45:05;;;;;;;9.48;5.40;;;;;;;8.16;73.72;101436.97;5104517;28;20032;-69
2021/09/21 02:47:30;;;;;;;15.65;5.53;;;;;;;8.13;73.71;101440.34;5104657;28;20036;-68
2021/09/21 02:49:55;;;;;;;11.68;5.95;;;;;;;8.21;73.40;101429.28;5104471;28;20062;-68
2021/09/21 02:52:21;;;;;;;8.52;4.95;;;;;;;8.19;73.74;101426.69;5085887;28;20020;-68
2021/09/21 02:54:46;;;;;;;14.30;6.05;;;;;;;8.20;73.71;101423.22;5104235;28;20032;-68
2021/09/21 02:57:11;;;;;;;9.23;5.65;;;;;;;8.21;73.65;101426.72;5104348;28;20059;-67
2021/09/21 02:59:37;;;;;;;12.63;5.45;;;;;;;8.14;73.74;101430.88;5085562;28;20031;-68
2021/09/21 03:02:02;;;;;;;11.13;6.75;;;;;;;8.16;73.86;101432.66;5104221;28;20110;-68
2021/09/21 03:04:31;;;;;;;12.00;6.03;;;;;;;8.16;73.99;101440.41;5104312;28;20016;-67
2021/09/21 03:07:09;;;;;;;8.90;5.05;;;;;;;8.16;73.92;101437.81;5104087;28;20050;-68
2021/09/21 03:12:25;;;;;;;10.15;5.50;;;;;;;8.21;73.90;101431.88;5103879;28;20292;-68
2021/09/21 03:17:35;;;;;;;9.32;6.03;;;;;;;8.21;73.83;101419.78;5104204;28;20031;-68
2021/09/21 03:20:03;;;;;;;7.57;4.93;;;;;;;8.16;73.94;101411.94;5103710;28;20028;-69
2021/09/21 03:22:29;;;;;;;9.10;5.97;;;;;;;8.14;74.11;101413.66;5103690;28;20058;-69
2021/09/21 03:24:55;;;;;;;12.45;5.38;;;;;;;8.10;74.25;101419.59;5103847;28;20054;-68
2021/09/21 03:27:21;;;;;;;9.07;4.30;;;;;;;8.10;74.36;101417.03;5103730;28;20438;-68
2021/09/21 03:29:47;;;;;;;11.18;5.47;;;;;;;8.11;74.25;101413.59;5103346;28;20028;-69
2021/09/21 03:32:12;;;;;;;9.88;5.40;;;;;;;8.13;74.53;101408.47;5103536;28;20031;-69
2021/09/21 03:34:38;;;;;;;8.95;4.18;;;;;;;8.15;74.51;101393.81;5103450;28;20418;-68
2021/09/21 03:37:09;;;;;;;12.45;6.03;;;;;;;8.09;74.76;101398.88;5103597;28;20020;-69
2021/09/21 03:39:35;;;;;;;9.77;6.07;;;;;;;8.05;75.01;101396.25;5103503;28;20016;-69
2021/09/21 03:42:01;;;;;;;10.93;6.13;;;;;;;7.93;75.27;101383.97;5103582;28;20020;-68
2021/09/21 03:44:27;;;;;;;8.63;4.70;;;;;;;7.98;75.37;101389.22;5103269;28;20046;-70
2021/09/21 03:46:53;;;;;;;9.57;5.70;;;;;;;8.06;75.12;101390.25;5103441;28;20031;-68
2021/09/21 03:49:19;;;;;;;12.27;5.85;;;;;;;8.01;75.33;101384.13;5084996;28;20027;-68
2021/09/21 03:51:45;;;;;;;10.52;5.32;;;;;;;8.15;75.06;101384.34;5103354;28;20035;-67
2021/09/21 03:54:12;;;;;;;7.15;4.10;;;;;;;8.11;75.34;101379.97;5103005;28;20364;-69
2021/09/21 03:56:37;;;;;;;8.63;5.22;;;;;;;8.10;75.45;101379.97;5103050;28;20032;-69
2021/09/21 03:59:07;;;;;;;7.78;4.80;;;;;;;8.11;75.71;101379.97;5103232;28;20031;-69
2021/09/21 04:01:33;;;;;;;10.55;5.10;;;;;;;8.09;75.76;101373.03;5085188;28;20034;-69
2021/09/21 04:03:59;;;;;;;12.00;6.45;;;;;;;8.11;75.58;101373.94;5103305;28;20027;-68
2021/09/21 04:06:25;;;;;;;11.30;5.20;;;;;;;8.09;75.79;101380.78;5103204;28;20028;-69
2021/09/21 04:08:52;;;;;;;10.18;5.18;;;;;;;8.03;76.15;101379.84;5103269;28;20070;-70
2021/09/21 04:11:17;;;;;;;12.65;5.13;;;;;;;8.14;75.61;101380.03;5103172;28;20055;-69
2021/09/21 04:13:43;;;;;;;11.38;6.88;;;;;;;8.02;76.13;101374.66;5103168;28;20012;-69
2021/09/21 04:16:08;;;;;;;10.98;5.80;;;;;;;8.04;76.04;101378.13;5103046;28;20149;-69
2021/09/21 04:18:34;;;;;;;12.07;6.85;;;;;;;8.06;75.90;101390.25;5103138;28;20024;-70
2021/09/21 04:20:59;;;;;;;11.55;5.50;;;;;;;8.05;76.10;101379.88;5102806;28;20038;-73
2021/09/21 04:23:24;;;;;;;11.63;5.60;;;;;;;8.08;76.11;101384.22;5105101;28;20036;-70
2021/09/21 04:25:50;;;;;;;15.13;6.97;;;;;;;7.99;76.51;101374.56;5107167;28;20028;-69
2021/09/21 04:28:16;;;;;;;9.82;6.25;;;;;;;8.06;76.40;101371.25;5106964;28;20027;-71
2021/09/21 04:30:43;;;;;;;12.82;7.65;;;;;;;8.01;76.35;101363.44;5107076;28;20024;-74
2021/09/21 04:33:08;;;;;;;10.07;6.07;;;;;;;7.98;76.63;101357.31;5106940;28;20020;-73
2021/09/21 04:35:33;;;;;;;8.90;5.22;;;;;;;8.04;76.65;101355.72;5088311;28;20513;-69
2021/09/21 04:37:59;;;;;;;7.88;5.22;;;;;;;8.02;76.72;101354.81;5106736;28;20020;-73
2021/09/21 04:40:24;;;;;;;12.93;5.50;;;;;;;8.01;76.94;101353.09;5106581;28;20032;-71
2021/09/21 04:42:50;;;;;;;12.15;4.90;;;;;;;8.00;77.03;101343.59;5106706;28;20020;-71
2021/09/21 04:45:15;;;;;;;11.55;6.60;;;;;;;7.79;77.25;101328.56;5106805;28;20070;-71
2021/09/21 04:47:40;;;;;;;9.45;6.03;;;;;;;7.89;77.35;101338.22;5106896;28;20031;-72
2021/09/21 04:50:06;;;;;;;10.60;5.82;;;;;;;7.80;77.76;101343.22;5107301;28;20024;-71
2021/09/21 04:52:32;;;;;;;11.35;5.63;;;;;;;7.94;77.55;101346.94;5107380;28;20073;-71
2021/09/21 04:54:57;;;;;;;11.90;6.90;;;;;;;7.89;77.84;101348.56;5106717;28;20028;-70
2021/09/21 04:57:23;;;;;;;13.25;7.05;;;;;;;7.91;77.69;101346.00;5106415;28;20380;-70
2021/09/21 04:59:48;;;;;;;10.88;5.68;;;;;;;7.91;77.77;101352.03;5106291;28;20515;-70
2021/09/21 05:02:13;;;;;;;12.85;7.50;;;;;;;7.77;78.08;101327.66;5106362;28;20035;-73
2021/09/21 05:04:39;;;;;;;14.05;7.70;;;;;;;7.84;78.08;101337.28;5106101;28;20065;-70
2021/09/21 05:07:04;;;;;;;10.63;6.65;;;;;;;7.87;78.05;101339.91;5106313;28;20020;-73
2021/09/21 05:09:29;;;;;;;14.10;6.90;;;;;;;7.89;78.23;101347.69;5106106;28;20096;-73
2021/09/21 05:11:55;;;;;;;13.80;7.05;;;;;;;7.89;78.14;101342.53;5106205;28;20027;-70
2021/09/21 05:14:21;;;;;;;15.43;7.88;;;;;;;7.91;78.13;101341.69;5105861;28;20426;-73
2021/09/21 05:16:46;;;;;;;11.55;6.07;;;;;;;8.01;77.94;101340.16;5087667;28;20023;-72
2021/09/21 05:19:12;;;;;;;13.48;8.05;;;;;;;7.97;78.07;101330.59;5105826;28;20023;-72
2021/09/21 05:21:39;;;;;;;14.70;9.65;;;;;;;8.06;77.96;101333.34;5105715;28;20452;-73
2021/09/21 05:24:06;;;;;;;15.40;7.40;;;;;;;8.08;77.87;101332.50;5105718;28;20016;-72
2021/09/21 05:26:32;;;;;;;12.68;7.35;;;;;;;8.05;77.93;101325.56;5105724;28;20024;-73
2021/09/21 05:28:57;;;;;;;14.27;8.50;;;;;;;8.05;78.07;101335.91;5105574;28;20028;-73
2021/09/21 05:31:23;;;;;;;12.57;7.85;;;;;;;8.06;78.07;101346.28;5105838;28;20028;-71
2021/09/21 05:33:48;;;;;;;16.42;6.68;;;;;;;8.10;77.80;101342.00;5105457;28;20632;-72
2021/09/21 05:36:13;;;;;;;15.95;8.70;;;;;;;8.11;78.22;101338.59;5105566;28;20065;-73
2021/09/21 05:38:39;;;;;;;11.68;8.00;;;;;;;8.19;77.87;101334.41;5105648;28;20028;-72
2021/09/21 05:41:04;;;;;;;14.57;8.10;;;;;;;8.18;78.16;101329.19;5105508;28;20030;-73
2021/09/21 05:43:30;;;;;;;14.32;7.53;;;;;;;8.21;77.83;101321.50;5105419;28;20020;-72
2021/09/21 05:45:55;;;;;;;13.93;8.23;;;;;;;8.20;78.04;101317.19;5105599;28;20020;-73
2021/09/21 05:48:21;;;;;;;14.23;7.72;;;;;;;8.30;78.02;101328.53;5105358;28;20020;-74
2021/09/21 05:50:46;;;;;;;14.07;7.63;;;;;;;8.36;78.04;101332.94;5087281;28;20024;-73
2021/09/21 05:53:12;;;;;;;13.55;7.07;;;;;;;8.32;77.87;101316.50;5105066;28;20043;-72
2021/09/21 05:55:37;;;;;;;15.27;7.80;;;;;;;8.45;77.64;101330.47;5105268;28;20027;-72
2021/09/21 05:58:02;;;;;;;14.98;7.72;;;;;;;8.40;77.99;101320.06;5105165;28;20083;-74
2021/09/21 06:00:28;;;;;;;15.55;8.30;;;;;;;8.46;78.00;101321.00;5104915;28;20024;-73
2021/09/21 06:02:53;;;;;;;13.85;8.20;;;;;;;8.50;78.03;101326.25;5105309;28;20024;-72
2021/09/21 06:05:19;;;;;;;10.85;6.88;;;;;;;8.59;77.86;101325.56;5105368;28;20031;-73
2021/09/21 06:07:47;;;;;;;11.23;6.50;;;;;;;8.61;77.70;101308.31;5105232;28;20041;-74
2021/09/21 06:10:12;;;;;;;11.07;6.72;;;;;;;8.66;77.67;101306.69;5105105;28;20085;-73
2021/09/21 06:12:37;;;;;;;12.38;7.60;;;;;;;8.76;77.71;101311.97;5105175;28;20020;-74
2021/09/21 06:15:04;;;;;;;12.27;7.18;;;;;;;8.75;77.55;101305.97;5104985;28;20038;-73
2021/09/21 06:17:29;;;;;;;14.32;8.82;;;;;;;8.77;77.52;101314.59;5104991;28;20085;-74
2021/09/21 06:19:54;;;;;;;10.18;5.47;;;;;;;8.77;77.47;101312.00;5104668;28;20024;-74
2021/09/21 06:22:20;;;;;;;15.77;7.05;;;;;;;8.78;77.43;101312.88;5104759;28;20125;-73
2021/09/21 06:24:45;;;;;;;15.82;8.52;;;;;;;8.84;77.45;101312.97;5104890;28;20028;-74
2021/09/21 06:27:10;;;;;;;12.65;7.07;;;;;;;8.86;77.24;101310.41;5104904;28;20031;-74
2021/09/21 06:29:36;;;;;;;15.23;8.60;;;;;;;8.85;77.46;101314.69;5104434;28;20024;-74
2021/09/21 06:32:01;;;;;;;14.52;8.27;;;;;;;8.94;77.23;101308.78;5104894;28;20601;-74
2021/09/21 06:34:27;;;;;;;13.35;8.02;;;;;;;8.96;77.28;101309.66;5086517;28;20046;-73
2021/09/21 06:36:53;;;;;;;12.25;6.90;;;;;;;8.94;77.18;101301.00;5104722;28;20081;-74
2021/09/21 06:39:20;;;;;;;12.85;6.43;;;;;;;9.00;77.03;101297.63;5104681;28;20024;-74
2021/09/21 06:41:45;;;;;;;15.20;10.18;;;;;;;9.07;76.91;101296.88;5086174;28;20024;-74
2021/09/21 06:44:11;;;;;;;14.55;4.68;;;;;;;9.12;76.66;101295.16;5104283;28;20019;-74
2021/09/21 06:46:36;;;;;;;11.70;6.90;;;;;;;9.11;76.68;101300.34;5103927;28;20501;-74
2021/09/21 06:49:02;;;;;;;8.68;6.00;;;;;;;9.07;76.78;101296.88;5104502;28;20032;-75
2021/09/21 06:51:27;;;;;;;8.45;4.80;;;;;;;9.14;76.52;101301.25;5086136;28;20087;-75
2021/09/21 06:53:52;;;;;;;12.18;6.60;;;;;;;9.04;76.84;101294.22;5104701;28;20085;-74
2021/09/21 06:56:18;;;;;;;15.60;7.60;;;;;;;9.00;76.84;101284.66;5104403;28;20077;-73
2021/09/21 06:58:43;;;;;;;15.05;6.65;;;;;;;9.00;77.12;101279.50;5104177;28;20400;-73
2021/09/21 07:01:09;;;;;;;14.77;6.75;;;;;;;9.06;77.32;101279.56;5104096;28;20108;-73
2021/09/21 07:03:34;;;;;;;12.10;6.22;;;;;;;8.98;77.30;101266.53;5104060;28;20530;-74
2021/09/21 07:05:59;;;;;;;12.35;6.93;;;;;;;9.02;77.33;101270.91;5104227;28;20475;-73
2021/09/21 07:08:25;;;;;;;11.90;6.25;;;;;;;9.03;77.42;101259.69;5085767;28;20032;-73
2021/09/21 07:10:51;;;;;;;14.45;7.60;;;;;;;9.04;77.70;101283.88;5085675;28;20024;-74
2021/09/21 07:13:16;;;;;;;15.20;7.28;;;;;;;9.03;78.00;101287.28;5103950;28;20023;-73
2021/09/21 07:15:42;;;;;;;14.90;7.90;;;;;;;8.89;78.38;101262.09;5085481;28;20434;-73
2021/09/21 07:18:07;;;;;;;15.88;7.78;;;;;;;9.03;78.46;101279.53;5103844;28;20049;-73
2021/09/21 07:20:33;;;;;;;15.88;7.35;;;;;;;9.07;78.32;101268.38;5103716;28;20032;-73
2021/09/21 07:22:58;;;;;;;15.30;8.35;;;;;;;9.07;78.37;101265.78;5103716;28;20039;-73
2021/09/21 07:25:24;;;;;;;16.10;8.55;;;;;;;9.07;78.54;101263.19;5103793;28;20341;-72
2021/09/21 07:27:52;;;;;;;16.98;8.98;;;;;;;9.17;78.57;101267.59;5103822;28;20020;-72
2021/09/21 07:30:18;;;;;;;13.48;7.68;;;;;;;9.20;78.82;101269.34;5103475;28;20020;-74
2021/09/21 07:32:43;;;;;;;12.88;7.93;;;;;;;9.29;78.61;101266.00;5104021;28;20047;-72
2021/09/21 07:35:09;;;;;;;16.95;7.57;;;;;;;9.38;78.24;101266.09;5103788;28;20057;-72
2021/09/21 07:37:35;;;;;;;16.50;9.00;;;;;;;9.45;78.17;101267.03;5103720;28;20032;-73
2021/09/21 07:40:00;;;;;;;14.98;9.18;;;;;;;9.39;78.25;101261.81;5085467;28;20073;-74
2021/09/21 07:42:26;;;;;;;16.40;9.15;;;;;;;9.42;78.24;101265.28;5103583;28;20031;-73
2021/09/21 07:44:53;;;;;;;15.15;8.50;;;;;;;9.47;78.54;101269.66;5103651;28;20016;-72
2021/09/21 07:47:18;;;;;;;16.48;7.97;;;;;;;9.52;78.38;101268.81;5103824;28;20028;-72
2021/09/21 07:49:44;;;;;;;14.98;8.32;;;;;;;9.51;78.49;101266.22;5103676;28;20062;-72
2021/09/21 07:52:10;;;;;;;15.20;8.07;;;;;;;9.62;78.10;101264.59;5103491;28;20051;-72
2021/09/21 07:54:35;;;;;;;13.10;8.05;;;;;;;9.59;78.17;101269.75;5103647;28;20024;-73
2021/09/21 07:57:02;;;;;;;15.75;8.02;;;;;;;9.63;78.26;101268.06;5103588;28;20051;-73
2021/09/21 07:59:28;;;;;;;9.32;5.60;;;;;;;9.73;77.97;101269.03;5103517;28;20096;-73
2021/09/21 08:01:53;;;;;;;13.23;6.63;;;;;;;9.68;78.03;101266.38;5103086;28;20047;-73
2021/09/21 08:04:18;;;;;;;14.68;8.48;;;;;;;9.62;78.62;101261.13;5102808;28;20023;-74
2021/09/21 08:06:44;;;;;;;13.65;7.60;;;;;;;9.64;78.89;101262.03;5103576;28;20049;-75
2021/09/21 08:09:09;;;;;;;14.68;8.75;;;;;;;9.79;78.46;101267.34;5103513;28;20024;-73
2021/09/21 08:11:35;;;;;;;18.40;8.82;;;;;;;9.81;78.70;101269.09;5103429;28;20028;-73
2021/09/21 08:14:04;;;;;;;16.20;9.23;;;;;;;9.96;78.57;101263.16;5103224;28;20012;-72
2021/09/21 08:16:32;;;;;;;13.82;8.18;;;;;;;10.00;78.50;101249.38;5103472;28;20024;-74
2021/09/21 08:18:58;;;;;;;14.13;8.45;;;;;;;10.08;78.21;101263.25;5085115;28;20051;-72
2021/09/21 08:21:26;;;;;;;17.25;8.45;;;;;;;10.09;78.29;101259.81;5102947;28;20031;-73
2021/09/21 08:23:51;;;;;;;13.27;7.35;;;;;;;10.15;77.97;101259.84;5103588;28;20020;-72
2021/09/21 08:26:17;;;;;;;11.63;7.28;;;;;;;10.27;77.38;101264.25;5103095;28;20476;-73
2021/09/21 08:28:43;;;;;;;14.30;7.85;;;;;;;10.22;77.68;101265.09;5102944;28;20081;-72
2021/09/21 08:31:09;;;;;;;12.38;7.35;;;;;;;10.21;77.71;101260.78;5102988;28;20020;-72
2021/09/21 08:33:34;;;;;;;12.00;7.72;;;;;;;10.23;77.89;101262.50;5102055;28;20526;-72
2021/09/21 08:36:00;;;;;;;13.10;8.15;;;;;;;10.26;77.78;101251.25;5102378;28;20020;-72
2021/09/21 08:38:26;;;;;;;12.80;7.05;;;;;;;10.31;77.79;101252.16;5103508;28;20020;-72
2021/09/21 08:40:51;;;;;;;15.98;8.20;;;;;;;10.42;77.41;101257.41;5103910;28;20424;-72
2021/09/21 08:43:16;;;;;;;13.98;7.65;;;;;;;10.39;77.45;101253.09;5103819;28;20020;-72
2021/09/21 08:45:42;;;;;;;13.35;7.40;;;;;;;10.36;77.79;101253.06;5103657;28;20436;-72
2021/09/21 08:48:07;;;;;;;13.35;8.07;;;;;;;10.36;77.66;101245.28;5103157;28;20437;-73
2021/09/21 08:50:33;;;;;;;14.02;7.40;;;;;;;10.45;77.84;101257.44;5102853;28;20333;-73
2021/09/21 08:52:58;;;;;;;12.23;8.10;;;;;;;10.52;77.33;101256.66;5102908;28;20028;-72
2021/09/21 08:55:24;;;;;;;15.38;8.80;;;;;;;10.51;77.29;101251.47;5103163;28;20461;-73
2021/09/21 08:57:51;;;;;;;10.88;7.57;;;;;;;10.49;77.59;101245.38;5103216;28;20016;-73
2021/09/21 09:00:23;;;;;;;11.38;7.10;;;;;;;10.49;77.59;101245.38;5084490;28;20028;-73
2021/09/21 09:02:48;;;;;;;13.20;7.82;;;;;;;10.50;77.82;101244.50;5103036;28;20028;-73
2021/09/21 09:05:14;;;;;;;19.63;7.50;;;;;;;10.52;77.95;101237.63;5103180;28;20035;-72
2021/09/21 09:07:52;;;;;;;13.57;7.63;;;;;;;10.58;77.15;101226.38;5084821;28;20020;-73
2021/09/21 09:10:19;;;;;;;8.98;5.38;;;;;;;10.50;77.75;101221.16;5087763;28;20046;-72
2021/09/21 09:12:45;;;;;;;15.48;7.72;;;;;;;10.37;78.51;101223.66;5106666;28;20075;-73
2021/09/21 09:15:16;;;;;;;14.45;7.75;;;;;;;10.46;78.87;101227.16;5106390;28;20085;-73
2021/09/21 09:17:54;;;;;;;15.75;8.05;;;;;;;10.61;78.58;101232.47;5106470;28;20031;-72
2021/09/21 09:20:36;;;;;;;13.20;7.55;;;;;;;10.61;78.83;101237.66;5106356;28;20038;-70
2021/09/21 09:23:02;;;;;;;;;;;;;;;10.77;78.70;101225.59;5089569;28;20472;-73
2021/09/21 09:25:27;;;;;;;13.77;7.88;;;;;;;10.87;78.40;101218.72;5106434;28;20224;-75
2021/09/21 09:27:53;;;;;;;11.98;7.03;;;;;;;10.97;78.31;101218.75;5106464;28;20052;-73
2021/09/21 09:30:24;;;;;;;10.05;6.63;;;;;;;11.02;78.53;101206.66;5105900;28;20096;-73
2021/09/21 09:32:51;;;;;;;16.00;7.37;;;;;;;11.11;78.65;101206.66;5106370;28;20024;-73
2021/09/21 09:35:29;;;;;;;10.65;6.22;;;;;;;11.27;77.88;101204.97;5106247;28;20039;-74
2021/09/21 09:38:00;;;;;;;10.23;6.03;;;;;;;11.34;77.84;101200.63;5106290;28;20012;-74
2021/09/21 09:40:29;;;;;;;8.90;6.30;;;;;;;11.39;77.32;101185.03;5106081;28;20043;-73
2021/09/21 09:42:55;;;;;;;13.10;7.05;;;;;;;11.45;77.36;101194.56;5087908;28;20123;-75
2021/09/21 09:45:33;;;;;;;11.73;6.72;;;;;;;11.48;77.41;101197.19;5105737;28;20115;-74
2021/09/21 09:47:59;;;;;;;11.18;5.47;;;;;;;11.53;77.40;101196.28;5087548;28;20054;-73
2021/09/21 09:50:31;;;;;;;11.00;6.35;;;;;;;11.59;77.25;101200.66;5105631;28;20087;-73
2021/09/21 09:53:23;;;;;;;10.82;6.00;;;;;;;11.65;77.40;101190.25;5105392;28;20038;-73
2021/09/21 09:55:51;;;;;;;8.05;4.68;;;;;;;11.76;76.89;101185.03;5105841;28;20502;-73
2021/09/21 09:58:19;;;;;;;8.95;5.40;;;;;;;11.87;76.85;101184.13;5105994;28;20028;-73
2021/09/21 10:00:45;;;;;;;7.80;5.20;;;;;;;11.94;76.59;101185.00;5105328;28;20027;-73
2021/09/21 10:03:11;;;;;;;7.55;4.60;;;;;;;11.93;76.41;101181.56;5087552;28;20486;-73
2021/09/21 10:05:39;;;;;;;9.88;4.82;;;;;;;12.03;76.09;101177.19;5105675;28;20375;-73
2021/09/21 10:08:06;;;;;;;9.27;4.32;;;;;;;12.03;75.42;101177.19;5105429;28;20153;-73
2021/09/21 10:10:38;;;;;;;8.50;5.20;;;;;;;12.07;74.99;101180.66;5087248;28;20043;-73
2021/09/21 10:13:15;;;;;;;10.52;4.85;;;;;;;11.95;74.64;101169.38;5087181;28;20027;-73
2021/09/21 10:15:42;;;;;;;9.35;4.50;;;;;;;11.85;74.88;101171.13;5105330;28;20415;-74
2021/09/21 10:18:19;;;;;;;7.68;4.25;;;;;;;11.64;74.90;101153.84;5105506;28;20053;-74
2021/09/21 10:20:57;;;;;;;10.27;4.85;;;;;;;11.49;75.46;101155.56;5104351;28;20022;-74
2021/09/21 10:23:30;;;;;;;6.80;4.97;;;;;;;11.51;75.93;101158.16;5105308;28;20213;-73
2021/09/21 10:26:05;;;;;;;9.82;4.72;;;;;;;11.51;75.98;101150.38;5105329;28;20031;-73
2021/09/21 10:28:39;;;;;;;7.20;4.20;;;;;;;11.50;76.12;101144.28;5087077;28;20036;-73
2021/09/21 10:31:13;;;;;;;12.48;6.00;;;;;;;11.47;76.28;101136.50;5104866;28;20031;-74
2021/09/21 10:33:39;;;;;;;9.55;4.53;;;;;;;11.53;76.19;101136.50;5105024;28;20020;-73
2021/09/21 10:36:15;;;;;;;7.75;4.65;;;;;;;11.56;76.14;101139.97;5105158;28;20024;-74
2021/09/21 10:39:07;;;;;;;7.90;4.78;;;;;;;11.56;76.32;101153.84;5105263;28;20150;-74
2021/09/21 10:41:33;;;;;;;7.38;4.93;;;;;;;11.56;76.12;101146.03;5086640;28;20089;-72
2021/09/21 10:44:06;;;;;;;10.32;5.35;;;;;;;11.57;76.43;101146.88;5086483;28;20055;-74
2021/09/21 10:46:52;;;;;;;12.73;5.68;;;;;;;11.62;76.21;101142.56;5104953;28;20375;-72
2021/09/21 10:49:41;;;;;;;9.30;5.25;;;;;;;11.62;75.77;101135.63;5104834;28;20072;-73
2021/09/21 10:52:12;;;;;;;7.88;5.70;;;;;;;11.51;76.64;101134.78;5104829;28;20028;-72
2021/09/21 10:54:42;;;;;;;10.43;5.20;;;;;;;11.50;76.57;101128.69;5104782;28;20020;-73
2021/09/21 10:57:38;;;;;;;8.02;5.40;;;;;;;11.48;76.91;101132.16;5104826;28;20415;-73
2021/09/21 11:00:07;;;;;;;9.60;5.30;;;;;;;11.49;76.99;101123.50;5096935;28;20119;-73
2021/09/21 11:02:36;;;;;;;7.85;5.32;;;;;;;11.61;76.30;101113.06;5104535;28;20499;-75
2021/09/21 11:05:04;;;;;;;9.65;4.97;;;;;;;11.55;77.07;101115.69;5104709;28;20365;-75
2021/09/21 11:07:31;;;;;;;11.82;6.28;;;;;;;11.53;76.92;101100.09;5104324;28;20028;-75
2021/09/21 11:09:56;;;;;;;8.90;5.22;;;;;;;11.53;77.39;101096.63;5104493;28;20039;-74
2021/09/21 11:12:24;;;;;;;11.20;5.68;;;;;;;11.61;77.59;101100.06;5104120;28;20024;-74
2021/09/21 11:14:55;;;;;;;9.90;5.57;;;;;;;11.74;77.04;101100.91;5104300;28;20065;-74
2021/09/21 11:17:23;;;;;;;12.38;5.97;;;;;;;11.73;77.46;101096.59;5104301;28;20024;-73
2021/09/21 11:19:54;;;;;;;8.93;5.40;;;;;;;11.77;77.61;101094.88;5104140;28;20023;-74
2021/09/21 11:22:26;;;;;;;10.18;5.78;;;;;;;11.78;77.43;101093.97;5103793;28;20048;-73
2021/09/21 11:24:57;;;;;;;8.45;4.78;;;;;;;11.84;77.65;101088.75;5086869;28;20111;-73
2021/09/21 11:27:22;;;;;;;9.38;5.25;;;;;;;11.75;77.83;101087.06;5104220;28;20020;-73
2021/09/21 11:29:49;;;;;;;9.95;5.68;;;;;;;11.77;77.66;101087.06;5103684;28;20490;-73
2021/09/21 11:32:19;;;;;;;10.77;6.38;;;;;;;11.68;78.06;101076.69;5103805;28;20215;-73
2021/09/21 11:34:55;;;;;;;9.73;5.90;;;;;;;11.68;78.34;101082.72;5085833;28;20028;-74